Time;durP1;ratioP1;P1;durP2;ratioP2;P2;SDS_P1;SDS_P2;PMS_P1;PMS_P2;Temp;Humidity;BMP_temperature;BMP_pressure;BME280_temperature;BME280_humidity;BME280_pressure;Samples;Min_cycle;Max_cycle;Signal;HPM_P1;HPM_P2
2021/09/09 00:00:49;;;;;;;16.37;14.00;;;14.60;91.30;;;13.58;91.92;97764.88;5025124;28;20502;-74
2021/09/09 00:03:16;;;;;;;15.60;14.07;;;14.50;91.40;;;13.54;91.94;97767.25;5042937;28;20494;-74
2021/09/09 00:05:44;;;;;;;15.47;13.20;;;14.50;91.70;;;13.59;91.81;97770.06;5031426;28;20487;-74
2021/09/09 00:08:11;;;;;;;15.73;14.23;;;14.50;91.80;;;13.54;92.24;97769.16;5028787;28;20537;-73
2021/09/09 00:10:38;;;;;;;16.40;13.67;;;14.50;91.90;;;13.43;92.51;97770.81;5030311;28;20468;-74
2021/09/09 00:13:06;;;;;;;16.70;15.00;;;14.40;92.20;;;13.42;92.97;97766.41;5030167;28;20544;-74
2021/09/09 00:15:33;;;;;;;17.53;14.57;;;14.30;92.60;;;13.13;93.22;97736.53;5033160;28;20564;-74
2021/09/09 00:18:00;;;;;;;15.40;13.90;;;14.30;92.70;;;13.44;92.79;97772.47;5028389;28;20849;-74
2021/09/09 00:20:27;;;;;;;15.70;14.10;;;14.30;93.00;;;13.47;92.28;97766.56;5029245;28;20457;-74
2021/09/09 00:22:55;;;;;;;16.30;14.60;;;14.40;92.30;;;13.42;92.75;97769.13;5043887;28;20502;-74
2021/09/09 00:25:22;;;;;;;15.33;13.70;;;14.40;92.60;;;13.32;93.10;97770.56;5028406;28;20465;-74
2021/09/09 00:27:49;;;;;;;16.00;14.40;;;14.30;92.40;;;13.31;93.05;97768.94;5029120;28;21037;-74
2021/09/09 00:30:16;;;;;;;16.33;14.30;;;14.30;92.70;;;13.44;92.52;97767.84;5027735;28;21030;-74
2021/09/09 00:32:43;;;;;;;16.00;14.40;;;14.40;92.40;;;13.31;92.77;97760.78;5029527;28;20451;-74
2021/09/09 00:35:11;;;;;;;16.30;14.77;;;14.30;92.20;;;13.32;92.87;97765.16;5024976;28;20455;-74
2021/09/09 00:37:38;;;;;;;16.03;14.40;;;14.30;92.20;;;13.24;93.12;97757.38;5027342;28;20466;-74
2021/09/09 00:40:08;;;;;;;18.30;14.27;;;14.20;92.40;;;13.26;93.43;97768.00;5028700;28;20530;-74
2021/09/09 00:42:35;;;;;;;16.90;15.10;;;14.20;92.60;;;13.16;93.73;97771.31;5028519;28;20572;-74
2021/09/09 00:45:03;;;;;;;18.20;15.60;;;14.20;92.80;;;13.13;93.91;97760.97;5030803;28;20468;-75
2021/09/09 00:47:30;;;;;;;15.77;14.23;;;14.10;93.20;;;13.14;94.03;97765.31;5031560;28;20450;-75
2021/09/09 00:49:57;;;;;;;16.60;14.97;;;14.10;93.30;;;13.18;93.76;97764.56;5032893;28;20482;-75
2021/09/09 00:52:24;;;;;;;16.23;14.60;;;14.10;93.10;;;13.09;93.74;97754.34;5029531;28;20461;-75
2021/09/09 00:54:51;;;;;;;16.23;14.83;;;14.10;93.00;;;13.17;93.61;97762.13;5030849;28;20549;-74
2021/09/09 00:57:19;;;;;;;16.10;14.50;;;14.10;93.40;;;13.09;94.36;97754.34;5034955;28;20494;-74
2021/09/09 00:59:47;;;;;;;15.70;14.20;;;14.10;93.50;;;13.09;94.14;97759.75;5033431;28;20580;-75
2021/09/09 01:02:15;;;;;;;14.63;13.20;;;14.10;93.10;;;13.13;94.21;97755.53;5031801;28;20995;-75
2021/09/09 01:04:42;;;;;;;15.90;14.40;;;14.10;93.50;;;13.03;94.20;97751.53;5031988;28;20470;-73
2021/09/09 01:07:10;;;;;;;15.73;14.23;;;14.10;93.30;;;12.99;94.41;97755.78;5030676;28;20490;-74
2021/09/09 01:09:37;;;;;;;16.63;15.00;;;14.00;93.50;;;13.00;94.49;97752.00;5031545;28;20501;-74
2021/09/09 01:12:05;;;;;;;15.80;14.27;;;14.00;93.80;;;12.92;94.60;97738.78;5031245;28;21564;-74
2021/09/09 01:14:33;;;;;;;16.33;14.73;;;14.00;93.70;;;12.92;94.84;97752.34;5033202;28;20458;-74
2021/09/09 01:17:00;;;;;;;16.40;14.80;;;13.90;94.00;;;12.77;95.26;97727.59;5030859;28;20607;-74
2021/09/09 01:19:27;;;;;;;15.03;13.50;;;13.90;94.50;;;12.86;95.18;97746.00;5031300;28;20565;-73
2021/09/09 01:21:54;;;;;;;15.67;14.27;;;13.90;94.30;;;12.94;94.57;97752.13;5031768;28;20461;-74
2021/09/09 01:24:24;;;;;;;16.97;15.27;;;13.90;93.90;;;12.92;94.97;97759.69;5030078;28;20565;-74
2021/09/09 01:26:54;;;;;;;16.67;15.10;;;13.90;94.20;;;12.85;94.64;97747.06;5032116;28;20459;-74
2021/09/09 01:29:23;;;;;;;16.63;15.03;;;13.90;94.00;;;12.84;95.00;97758.16;5031019;28;20446;-74
2021/09/09 01:31:50;;;;;;;19.30;15.77;;;13.80;94.20;;;12.81;94.76;97755.88;5028167;28;20545;-74
2021/09/09 01:34:17;;;;;;;17.97;16.17;;;13.80;94.00;;;12.81;95.00;97764.84;5029976;28;20454;-74
2021/09/09 01:36:44;;;;;;;16.10;14.40;;;13.80;94.10;;;12.78;95.09;97769.91;5031565;28;20552;-74
2021/09/09 01:39:11;;;;;;;17.40;15.77;;;13.70;94.50;;;12.73;95.13;97768.75;5029991;28;20470;-74
2021/09/09 01:41:40;;;;;;;16.37;14.80;;;13.70;94.50;;;12.78;95.14;97756.38;5042489;28;20462;-74
2021/09/09 01:44:07;;;;;;;18.07;16.23;;;13.70;94.70;;;12.82;95.02;97757.56;5031335;28;20523;-74
2021/09/09 01:46:34;;;;;;;15.70;14.20;;;13.80;94.60;;;12.79;95.10;97763.44;5030264;28;20542;-74
2021/09/09 01:49:02;;;;;;;16.33;14.70;;;13.70;94.40;;;12.74;95.21;97761.47;5031304;28;20467;-74
2021/09/09 01:51:29;;;;;;;18.10;14.63;;;13.70;94.50;;;12.67;95.39;97764.28;5037143;28;21068;-74
2021/09/09 01:53:56;;;;;;;17.33;15.30;;;13.60;94.50;;;12.63;95.38;97763.09;5028441;28;20902;-74
2021/09/09 01:56:23;;;;;;;16.63;14.93;;;13.60;94.70;;;12.62;95.57;97761.44;5031884;28;20867;-74
2021/09/09 01:58:52;;;;;;;16.97;15.27;;;13.60;95.20;;;12.52;95.81;97758.50;5032557;28;20560;-74
2021/09/09 02:01:20;;;;;;;15.93;14.40;;;13.50;94.90;;;12.43;96.06;97764.25;5030041;28;20542;-75
2021/09/09 02:03:47;;;;;;;17.10;14.53;;;13.40;95.40;;;12.50;96.29;97763.31;5031283;28;20577;-75
2021/09/09 02:06:14;;;;;;;19.90;16.20;;;13.40;95.90;;;12.47;96.08;97762.72;5031567;28;20925;-75
2021/09/09 02:08:41;;;;;;;17.13;15.30;;;13.50;95.50;;;12.37;96.40;97751.66;5029996;28;21407;-75
2021/09/09 02:11:08;;;;;;;15.93;14.43;;;13.40;95.40;;;12.43;96.58;97758.00;5026201;28;20462;-74
2021/09/09 02:13:36;;;;;;;17.50;15.80;;;13.40;95.70;;;12.36;96.88;97749.16;5030809;28;20565;-75
2021/09/09 02:16:05;;;;;;;16.50;14.80;;;13.40;96.10;;;12.39;96.58;97763.06;5030402;28;20470;-74
2021/09/09 02:18:33;;;;;;;17.50;15.27;;;13.40;95.80;;;12.45;95.79;97762.13;5029611;28;20529;-75
2021/09/09 02:21:00;;;;;;;18.00;16.20;;;13.40;95.50;;;12.33;96.51;97753.16;5030205;28;20509;-75
2021/09/09 02:23:27;;;;;;;15.33;13.83;;;13.40;95.60;;;12.27;96.93;97748.69;5030659;28;20876;-75
2021/09/09 02:25:54;;;;;;;17.03;15.40;;;13.30;95.90;;;12.30;96.89;97750.91;5046568;28;20490;-75
2021/09/09 02:28:21;;;;;;;16.13;14.53;;;13.20;96.30;;;12.25;97.13;97756.22;5029471;28;20536;-75
2021/09/09 02:30:48;;;;;;;17.23;15.63;;;13.20;96.20;;;12.22;97.34;97757.50;5031737;28;20463;-74
2021/09/09 02:33:17;;;;;;;17.27;15.67;;;13.20;96.60;;;12.17;97.39;97750.06;5030179;28;20459;-75
2021/09/09 02:35:44;;;;;;;16.07;14.57;;;13.20;97.00;;;12.15;97.54;97752.19;5031199;28;20549;-73
2021/09/09 02:38:11;;;;;;;16.50;14.83;;;13.20;97.00;;;12.09;97.61;97746.88;5031043;28;20536;-73
2021/09/09 02:40:38;;;;;;;16.90;14.70;;;13.10;97.30;;;12.09;97.60;97749.56;5027982;28;20828;-73
2021/09/09 02:43:05;;;;;;;16.90;15.30;;;13.10;97.40;;;11.98;97.99;97743.06;5028266;28;20508;-74
2021/09/09 02:45:32;;;;;;;17.30;15.60;;;13.00;97.40;;;12.18;97.31;97751.72;5029070;28;20458;-74
2021/09/09 02:47:59;;;;;;;17.33;15.63;;;13.10;97.40;;;12.09;97.57;97736.88;5029177;28;20577;-74
2021/09/09 02:50:27;;;;;;;17.67;15.80;;;13.10;96.60;;;12.18;97.32;97742.78;5029162;28;20465;-73
2021/09/09 02:52:54;;;;;;;16.37;14.77;;;13.20;96.60;;;12.12;97.34;97735.56;5029960;28;20538;-74
2021/09/09 02:55:21;;;;;;;17.20;15.60;;;13.20;96.50;;;12.11;97.54;97729.34;5046522;28;20904;-74
2021/09/09 02:57:48;;;;;;;17.60;15.77;;;13.10;96.70;;;12.10;97.47;97727.69;5028587;28;20550;-73
2021/09/09 03:00:16;;;;;;;18.17;16.47;;;13.10;97.00;;;12.11;97.48;97726.63;5029390;28;20566;-73
2021/09/09 03:02:43;;;;;;;18.40;16.60;;;13.10;97.10;;;12.17;97.44;97733.00;5029601;28;20466;-73
2021/09/09 03:05:11;;;;;;;15.33;13.93;;;13.10;97.30;;;12.17;97.24;97722.19;5027544;28;20530;-73
2021/09/09 03:07:39;;;;;;;18.00;16.20;;;13.10;97.20;;;12.15;97.10;97725.09;5029344;28;20466;-74
2021/09/09 03:10:07;;;;;;;20.47;16.03;;;13.10;96.60;;;12.28;97.24;97723.25;5027965;28;20497;-73
2021/09/09 03:12:34;;;;;;;18.20;15.70;;;13.10;96.90;;;12.18;96.58;97724.63;5029966;28;20458;-74
2021/09/09 03:15:03;;;;;;;17.80;16.17;;;13.20;95.90;;;12.08;96.84;97712.72;5034509;28;20559;-74
2021/09/09 03:17:30;;;;;;;18.80;15.00;;;13.10;96.40;;;12.25;96.70;97712.88;5028626;28;20549;-73
2021/09/09 03:19:57;;;;;;;18.13;15.10;;;13.10;96.50;;;12.24;95.78;97712.03;5031748;28;21021;-73
2021/09/09 03:22:24;;;;;;;17.73;15.93;;;13.20;95.20;;;12.20;95.64;97710.88;5028717;28;20455;-74
2021/09/09 03:24:52;;;;;;;16.97;15.27;;;13.20;94.90;;;12.17;95.87;97706.72;5030182;28;20537;-74
2021/09/09 03:27:19;;;;;;;16.40;14.70;;;13.10;94.90;;;12.08;96.01;97702.75;5029218;28;20517;-73
2021/09/09 03:29:46;;;;;;;15.87;14.27;;;13.10;95.20;;;11.99;96.24;97704.94;5029952;28;20543;-73
2021/09/09 03:32:13;;;;;;;17.47;15.67;;;13.00;95.40;;;11.96;96.72;97699.94;5030010;28;20458;-73
2021/09/09 03:34:40;;;;;;;16.20;14.50;;;12.90;95.90;;;11.92;96.54;97703.38;5030600;28;20547;-74
2021/09/09 03:37:07;;;;;;;17.40;14.97;;;12.90;95.90;;;11.87;97.01;97699.47;5030111;28;20580;-74
2021/09/09 03:39:34;;;;;;;16.23;14.63;;;12.90;96.30;;;11.89;96.77;97701.94;5027411;28;20468;-74
2021/09/09 03:42:03;;;;;;;15.67;14.13;;;12.80;96.60;;;11.93;96.52;97694.19;5027772;28;20459;-74
2021/09/09 03:44:30;;;;;;;17.03;15.40;;;12.90;96.50;;;11.77;96.38;97689.22;5029148;28;20466;-74
2021/09/09 03:46:57;;;;;;;18.07;16.10;;;12.80;96.00;;;11.77;96.43;97696.53;5042241;28;20451;-74
2021/09/09 03:49:23;;;;;;;18.13;16.23;;;12.80;96.10;;;11.74;96.79;97697.78;5029334;28;20528;-74
2021/09/09 03:51:51;;;;;;;15.47;14.07;;;12.80;96.60;;;11.82;96.95;97693.09;5029453;28;20445;-74
2021/09/09 03:54:17;;;;;;;18.90;14.83;;;12.80;96.70;;;11.96;96.19;97696.44;5026832;28;20470;-74
2021/09/09 03:56:44;;;;;;;16.80;15.20;;;12.90;96.00;;;11.85;95.98;97693.47;5027903;28;20834;-74
2021/09/09 03:59:13;;;;;;;20.10;15.33;;;12.90;95.40;;;11.92;95.72;97703.38;5044514;28;21293;-73
2021/09/09 04:01:40;;;;;;;14.27;12.97;;;12.90;95.30;;;11.84;95.71;97699.94;5030017;28;20459;-74
2021/09/09 04:04:07;;;;;;;17.10;15.30;;;12.90;95.10;;;11.88;96.23;97698.41;5030321;28;20462;-74
2021/09/09 04:06:33;;;;;;;17.00;15.30;;;13.00;95.40;;;11.81;95.91;97702.28;5027418;28;20531;-74
2021/09/09 04:09:00;;;;;;;16.83;15.33;;;12.80;95.20;;;11.81;96.76;97707.69;5024167;28;20509;-72
2021/09/09 04:11:27;;;;;;;15.27;13.97;;;12.80;95.70;;;11.76;96.50;97700.28;5029502;28;20454;-73
2021/09/09 04:13:54;;;;;;;15.93;14.43;;;12.70;95.80;;;11.77;96.41;97701.94;5026701;28;20970;-73
2021/09/09 04:16:23;;;;;;;16.33;14.80;;;12.80;95.50;;;11.73;96.09;97701.56;5029011;28;20490;-74
2021/09/09 04:18:49;;;;;;;16.57;14.97;;;12.70;95.50;;;11.67;96.70;97697.06;5033247;28;20516;-74
2021/09/09 04:21:16;;;;;;;17.30;15.60;;;12.70;95.60;;;11.65;96.34;97704.56;5030472;28;20458;-74
2021/09/09 04:23:43;;;;;;;16.07;14.63;;;12.70;95.80;;;11.60;96.68;97707.16;5030699;28;20802;-73
2021/09/09 04:26:10;;;;;;;19.07;16.60;;;12.60;96.10;;;11.58;96.82;97701.97;5027195;28;20543;-74
2021/09/09 04:28:37;;;;;;;16.60;15.00;;;12.60;96.50;;;11.76;96.18;97705.69;5032799;28;20546;-74
2021/09/09 04:31:05;;;;;;;15.70;14.20;;;12.70;96.30;;;11.81;95.93;97708.53;5028521;28;20890;-74
2021/09/09 04:33:34;;;;;;;17.13;15.43;;;12.70;95.30;;;11.76;96.20;97703.00;5031660;28;20537;-74
2021/09/09 04:36:01;;;;;;;17.57;15.93;;;12.80;95.40;;;11.75;96.21;97698.59;5029723;28;20545;-74
2021/09/09 04:38:28;;;;;;;17.07;15.27;;;12.70;95.20;;;11.80;96.38;97703.34;5031941;28;20469;-74
2021/09/09 04:40:55;;;;;;;17.27;15.47;;;12.80;95.20;;;11.77;95.87;97697.31;5032551;28;20566;-74
2021/09/09 04:43:22;;;;;;;18.30;16.50;;;12.80;95.20;;;11.83;95.82;97698.28;5031910;28;20584;-74
2021/09/09 04:45:49;;;;;;;16.73;15.13;;;12.80;95.10;;;11.76;96.62;97700.28;5033301;28;20478;-74
2021/09/09 04:48:16;;;;;;;16.73;14.63;;;12.80;95.70;;;11.83;95.95;97695.56;5032147;28;20466;-74
2021/09/09 04:50:44;;;;;;;18.23;16.33;;;12.80;95.50;;;11.93;95.93;97702.31;5031224;28;20451;-74
2021/09/09 04:53:11;;;;;;;16.07;14.50;;;12.90;95.20;;;11.98;95.27;97703.28;5032351;28;20494;-74
2021/09/09 04:55:38;;;;;;;16.00;14.60;;;12.90;94.80;;;12.08;94.50;97718.16;5046602;28;20447;-74
2021/09/09 04:58:05;;;;;;;17.33;15.50;;;13.00;93.80;;;12.04;94.35;97717.78;5030182;28;20970;-75
2021/09/09 05:00:32;;;;;;;17.03;15.40;;;13.00;93.60;;;12.05;94.43;97719.44;5028715;28;20573;-74
2021/09/09 05:03:17;;;;;;;18.30;14.13;;;13.00;93.60;;;12.02;94.38;97728.84;5032123;28;20446;-74
2021/09/09 05:05:52;;;;;;;16.90;15.20;;;13.20;93.70;;;12.07;94.10;97719.19;5019958;28;20826;-74
2021/09/09 05:08:19;;;;;;;15.70;14.20;;;13.00;93.50;;;12.23;94.02;97720.41;5031366;28;20490;-74
2021/09/09 05:10:46;;;;;;;15.70;14.20;;;13.20;93.40;;;12.35;93.58;97726.66;5030954;28;20466;-74
2021/09/09 05:13:14;;;;;;;15.17;13.70;;;13.30;93.00;;;12.40;92.18;97729.50;5033565;28;20536;-74
2021/09/09 05:15:41;;;;;;;14.70;13.30;;;13.40;91.90;;;12.38;92.38;97722.66;5031065;28;20542;-74
2021/09/09 05:18:08;;;;;;;16.63;15.03;;;13.40;91.80;;;12.43;91.35;97717.34;5033439;28;20485;-74
2021/09/09 05:20:36;;;;;;;17.37;15.60;;;13.40;91.00;;;12.44;90.39;97705.47;5031399;28;20540;-73
2021/09/09 05:23:04;;;;;;;15.87;14.37;;;13.50;90.30;;;12.41;91.11;97712.19;5023437;28;20482;-74
2021/09/09 05:25:31;;;;;;;14.37;13.07;;;13.50;90.30;;;12.41;90.85;97706.78;5033611;28;20527;-73
2021/09/09 05:27:58;;;;;;;24.93;14.70;;;13.50;90.30;;;12.41;90.68;97716.78;5027971;28;20463;-74
2021/09/09 05:30:25;;;;;;;17.80;14.83;;;13.50;90.30;;;12.43;90.88;97704.66;5030847;28;20542;-73
2021/09/09 05:32:52;;;;;;;16.07;13.97;;;13.50;90.20;;;12.53;90.31;97709.47;5028178;28;20497;-74
2021/09/09 05:35:19;;;;;;;16.20;14.50;;;13.60;90.00;;;12.65;89.51;97704.03;5027785;28;20494;-74
2021/09/09 05:37:46;;;;;;;15.70;14.23;;;13.70;89.20;;;12.63;89.34;97706.16;5030437;28;20559;-74
2021/09/09 05:40:15;;;;;;;16.00;14.40;;;13.70;88.60;;;12.74;88.93;97699.13;5028012;28;20949;-75
2021/09/09 05:42:42;;;;;;;15.50;14.00;;;13.80;88.10;;;12.78;88.28;97704.88;5033389;28;20837;-74
2021/09/09 05:45:10;;;;;;;20.13;15.33;;;13.80;87.40;;;12.76;88.15;97707.81;5031706;28;20603;-74
2021/09/09 05:47:37;;;;;;;16.57;14.77;;;13.80;86.90;;;12.87;88.41;97708.88;5030997;28;20455;-74
2021/09/09 05:50:05;;;;;;;15.90;14.40;;;13.90;87.20;;;12.96;88.56;97702.00;5034037;28;20498;-74
2021/09/09 05:52:32;;;;;;;15.77;14.23;;;14.00;87.80;;;13.16;87.64;97707.03;5031387;28;20521;-74
2021/09/09 05:54:59;;;;;;;15.77;14.03;;;14.10;87.00;;;13.32;86.51;97710.06;5028432;28;20512;-74
2021/09/09 05:57:28;;;;;;;16.07;14.30;;;14.30;86.10;;;13.43;85.80;97716.53;5032104;28;20574;-77
2021/09/09 05:59:55;;;;;;;27.50;14.70;;;14.40;85.30;;;13.39;85.00;97699.06;5028258;28;20497;-78
2021/09/09 06:02:26;;;;;;;15.07;13.23;;;14.50;84.50;;;13.66;83.29;97737.34;5041500;28;20498;-78
2021/09/09 06:04:55;;;;;;;16.27;13.23;;;14.60;83.20;;;13.65;83.37;97737.59;5028804;28;20455;-78
2021/09/09 06:07:22;;;;;;;15.00;13.47;;;14.70;82.90;;;13.81;82.63;97738.72;5028457;28;20447;-78
2021/09/09 06:09:49;;;;;;;14.50;13.00;;;14.80;82.40;;;13.94;81.97;97729.44;5048409;28;20490;-79
2021/09/09 06:12:16;;;;;;;13.77;12.47;;;14.90;82.00;;;13.97;80.20;97716.19;5033111;28;20490;-79
2021/09/09 06:14:44;;;;;;;19.40;14.33;;;15.00;80.40;;;14.13;79.16;97714.53;5038757;28;20645;-77
2021/09/09 06:17:11;;;;;;;14.47;12.93;;;15.20;79.00;;;14.32;79.09;97722.44;5030872;28;20561;-77
2021/09/09 06:19:38;;;;;;;14.27;12.57;;;15.30;79.10;;;14.46;78.29;97725.69;5033798;28;21249;-79
2021/09/09 06:22:06;;;;;;;16.40;13.20;;;15.40;78.30;;;14.62;77.79;97726.72;5030525;28;20516;-77
2021/09/09 06:24:33;;;;;;;13.70;12.40;;;15.50;77.60;;;14.81;75.99;97718.34;5048068;28;20454;-78
2021/09/09 06:27:00;;;;;;;14.00;12.60;;;15.70;76.30;;;14.90;75.76;97711.38;5028326;28;20846;-79
2021/09/09 06:29:27;;;;;;;17.40;12.50;;;15.90;75.70;;;15.07;74.71;97716.78;5014421;28;20767;-79
2021/09/09 06:31:55;;;;;;;14.10;12.73;;;16.00;74.70;;;15.06;74.37;97704.25;5027858;28;20554;-77
2021/09/09 06:34:22;;;;;;;13.83;12.30;;;16.10;74.00;;;15.14;74.08;97705.72;5031644;28;20529;-78
2021/09/09 06:36:49;;;;;;;16.93;13.10;;;16.10;73.60;;;15.48;72.59;97711.00;5032149;28;20508;-79
2021/09/09 06:39:19;;;;;;;12.70;11.50;;;16.40;72.50;;;15.67;71.60;97705.22;5033567;28;20920;-77
2021/09/09 06:41:46;;;;;;;13.87;11.00;;;16.50;72.10;;;15.74;71.54;97714.00;5029588;28;20605;-79
2021/09/09 06:44:13;;;;;;;11.40;10.23;;;16.70;71.20;;;15.93;70.07;97713.69;5030679;28;20470;-76
2021/09/09 06:46:41;;;;;;;12.03;10.93;;;16.80;70.40;;;16.04;69.90;97718.16;5029195;28;20521;-78
2021/09/09 06:49:10;;;;;;;11.50;10.50;;;16.90;69.80;;;16.16;69.38;97709.00;5030253;28;20494;-75
2021/09/09 06:51:39;;;;;;;13.80;12.40;;;17.10;69.30;;;16.27;68.87;97695.19;5026070;28;20502;-75
2021/09/09 06:54:06;;;;;;;13.70;12.30;;;17.20;68.90;;;16.09;68.55;97712.72;5031690;28;20509;-76
2021/09/09 06:56:33;;;;;;;12.00;10.90;;;17.20;68.00;;;16.16;69.30;97709.78;5033544;28;20512;-76
2021/09/09 06:59:00;;;;;;;15.33;11.40;;;17.10;68.70;;;16.33;69.05;97709.66;5030890;28;20554;-77
2021/09/09 07:01:27;;;;;;;11.93;10.77;;;17.20;68.60;;;16.41;68.02;97711.09;5028865;28;20474;-76
2021/09/09 07:03:54;;;;;;;12.73;11.23;;;17.40;68.00;;;16.62;67.57;97728.44;5022321;28;20547;-76
2021/09/09 07:06:23;;;;;;;14.13;10.97;;;17.50;67.60;;;16.80;66.73;97723.63;5048042;28;20496;-76
2021/09/09 07:08:50;;;;;;;11.63;10.50;;;17.60;66.90;;;16.93;66.86;97717.72;5029396;28;21037;-75
2021/09/09 07:11:17;;;;;;;11.73;10.63;;;17.80;66.60;;;17.16;66.27;97707.47;5030448;28;20534;-75
2021/09/09 07:13:44;;;;;;;12.63;11.43;;;18.00;66.60;;;17.00;65.16;97714.78;5022875;28;20467;-74
2021/09/09 07:16:11;;;;;;;11.43;10.33;;;17.90;65.10;;;17.27;65.08;97711.88;5032576;28;20553;-75
2021/09/09 07:18:39;;;;;;;11.33;10.20;;;18.10;65.60;;;17.39;64.80;97702.66;5029463;28;20542;-75
2021/09/09 07:21:07;;;;;;;11.40;10.30;;;18.20;65.30;;;17.60;64.20;97694.53;5030407;28;21017;-75
2021/09/09 07:23:36;;;;;;;13.73;10.43;;;18.40;65.10;;;17.44;64.00;97694.47;5032735;28;20490;-74
2021/09/09 07:26:03;;;;;;;12.55;11.25;;;18.40;64.30;;;17.55;64.33;97698.06;5029060;28;20491;-76
2021/09/09 07:28:30;;;;;;;11.80;10.70;;;18.40;64.60;;;17.69;64.11;97703.84;5028982;28;20207;-75
2021/09/09 07:30:57;;;;;;;11.00;9.43;;;18.50;64.70;;;17.90;63.40;97710.16;5012720;28;20446;-75
2021/09/09 07:33:24;;;;;;;11.33;10.00;;;18.70;64.40;;;17.96;63.21;97714.53;5023826;28;20562;-76
2021/09/09 07:35:51;;;;;;;10.40;9.40;;;18.80;64.10;;;18.07;62.63;97709.91;5029692;28;20551;-77
2021/09/09 07:38:21;;;;;;;11.80;10.70;;;18.90;63.80;;;18.21;62.19;97714.84;5028188;28;20489;-76
2021/09/09 07:40:49;;;;;;;11.43;10.33;;;19.00;63.60;;;18.35;61.95;97713.22;5014895;28;20474;-77
2021/09/09 07:43:16;;;;;;;11.80;10.70;;;19.20;63.20;;;18.36;61.51;97697.66;5027832;28;21036;-77
2021/09/09 07:45:44;;;;;;;10.93;9.87;;;19.30;62.90;;;18.49;61.91;97723.59;5028203;28;20459;-76
2021/09/09 07:48:11;;;;;;;10.83;9.83;;;19.30;63.00;;;18.74;61.13;97724.69;5030664;28;21297;-77
2021/09/09 07:50:38;;;;;;;10.63;9.63;;;19.50;62.80;;;18.83;60.62;97725.75;5028275;28;20451;-77
2021/09/09 07:53:05;;;;;;;12.03;10.23;;;19.60;62.30;;;19.03;60.49;97721.34;5029416;28;20532;-76
2021/09/09 07:55:32;;;;;;;10.77;9.80;;;19.80;62.50;;;19.16;60.10;97725.44;5041180;28;20962;-77
2021/09/09 07:58:00;;;;;;;10.57;9.57;;;19.90;62.30;;;19.34;59.40;97713.06;5028199;28;21159;-77
2021/09/09 08:00:27;;;;;;;13.17;8.97;;;20.10;62.00;;;19.53;59.32;97725.00;5028613;28;20539;-77
2021/09/09 08:02:55;;;;;;;10.33;9.10;;;20.30;61.80;;;19.49;58.71;97717.63;5030074;28;20498;-77
2021/09/09 08:05:22;;;;;;;10.80;9.20;;;20.30;61.10;;;19.64;58.96;97719.47;5029217;28;20454;-77
2021/09/09 08:07:49;;;;;;;10.40;9.33;;;20.40;61.50;;;19.88;58.32;97721.53;5025040;28;20485;-77
2021/09/09 08:10:17;;;;;;;10.47;9.43;;;20.50;61.20;;;19.87;57.88;97731.69;5029168;28;20482;-77
2021/09/09 08:12:46;;;;;;;11.63;10.43;;;20.70;60.60;;;19.89;58.04;97726.72;5029278;28;20875;-75
2021/09/09 08:15:15;;;;;;;11.10;9.40;;;20.70;60.80;;;19.94;58.37;97729.47;5028538;28;20490;-77
2021/09/09 08:17:43;;;;;;;10.97;9.87;;;20.70;60.90;;;19.88;58.23;97724.25;5027152;28;20565;-75
2021/09/09 08:20:12;;;;;;;11.07;9.97;;;20.70;60.60;;;20.13;58.93;97730.72;5030094;28;21169;-77
2021/09/09 08:22:40;;;;;;;11.10;10.00;;;20.80;61.50;;;20.21;58.36;97727.34;5043436;28;20462;-76
2021/09/09 08:25:09;;;;;;;11.00;10.00;;;20.90;61.10;;;20.35;58.16;97722.84;5035482;28;20446;-79
2021/09/09 08:27:36;;;;;;;11.63;9.37;;;21.10;61.00;;;20.29;57.43;97702.06;5049394;28;20196;-79
2021/09/09 08:30:07;;;;;;;13.70;9.67;;;21.20;60.60;;;20.66;57.60;97719.84;5037312;28;20495;-77
2021/09/09 08:32:35;;;;;;;12.45;10.15;;;21.40;61.00;;;20.87;56.67;97722.44;5028009;28;20459;-76
2021/09/09 08:35:02;;;;;;;13.90;10.23;;;21.60;60.50;;;20.92;56.38;97711.38;5029330;28;20286;-74
2021/09/09 08:37:30;;;;;;;12.40;9.70;;;21.70;60.20;;;20.98;56.48;97725.03;5031064;28;20875;-76
2021/09/09 08:39:57;;;;;;;11.60;10.17;;;21.70;60.30;;;21.03;56.28;97722.28;5033678;28;21064;-76
2021/09/09 08:42:24;;;;;;;11.80;10.10;;;21.80;60.10;;;21.16;56.23;97718.00;5039720;28;20474;-77
2021/09/09 08:44:51;;;;;;;11.33;10.33;;;21.90;60.10;;;21.35;56.25;97712.56;5036777;28;20493;-79
2021/09/09 08:47:19;;;;;;;10.57;9.50;;;22.00;60.40;;;21.12;56.29;97686.75;5029588;28;20497;-77
2021/09/09 08:49:47;;;;;;;10.73;9.73;;;22.10;60.10;;;21.56;55.58;97715.03;5031786;28;20523;-77
2021/09/09 08:52:15;;;;;;;11.77;10.40;;;22.20;60.30;;;21.72;55.19;97716.47;5030549;28;20992;-76
2021/09/09 08:54:45;;;;;;;10.80;9.90;;;22.40;60.00;;;21.86;54.96;97718.50;5032621;28;20526;-77
2021/09/09 08:57:12;;;;;;;10.43;9.53;;;22.50;59.70;;;21.91;54.84;97704.66;5031392;28;20731;-77
2021/09/09 08:59:39;;;;;;;10.00;9.10;;;22.60;59.70;;;22.13;54.64;97717.81;5028365;28;20482;-76
2021/09/09 09:02:08;;;;;;;11.23;10.13;;;22.80;59.60;;;22.20;54.09;97726.53;5027323;28;21110;-77
2021/09/09 09:04:37;;;;;;;11.83;10.60;;;22.90;59.40;;;22.26;54.10;97727.25;5032672;28;20534;-77
2021/09/09 09:07:08;;;;;;;11.27;10.10;;;23.00;59.30;;;22.32;54.33;97731.56;5035881;28;20544;-76
2021/09/09 09:09:40;;;;;;;10.70;9.50;;;23.00;59.50;;;22.36;54.02;97731.78;5030495;28;20200;-76
2021/09/09 09:12:10;;;;;;;11.43;10.03;;;23.10;59.30;;;22.42;54.05;97729.75;5033396;28;20458;-77
2021/09/09 09:14:37;;;;;;;12.10;10.37;;;23.20;59.30;;;22.55;53.80;97723.50;5036072;28;20467;-77
2021/09/09 09:17:07;;;;;;;10.60;9.60;;;23.30;59.20;;;22.71;53.91;97726.00;5041132;28;20493;-79
2021/09/09 09:19:37;;;;;;;11.73;10.53;;;23.40;59.40;;;22.80;53.54;97723.38;5034888;28;20485;-77
2021/09/09 09:22:09;;;;;;;12.17;10.97;;;23.50;59.30;;;22.80;53.66;97721.41;5047706;28;20555;-78
2021/09/09 09:24:45;;;;;;;10.03;9.03;;;23.60;59.20;;;22.85;53.94;97710.31;5052713;28;20458;-79
2021/09/09 09:27:15;;;;;;;11.20;10.10;;;23.70;59.40;;;23.02;53.21;97730.94;5043315;28;20466;-78
2021/09/09 09:29:58;;;;;;;12.20;10.77;;;23.70;59.10;;;23.07;53.30;97728.09;5032396;28;20802;-78
2021/09/09 09:32:25;;;;;;;11.50;10.40;;;23.70;59.00;;;23.16;53.03;97720.75;5040841;28;20458;-77
2021/09/09 09:35:09;;;;;;;12.00;10.80;;;23.90;59.10;;;23.31;53.16;97713.34;5033192;28;20546;-78
2021/09/09 09:37:50;;;;;;;10.70;9.60;;;24.00;59.30;;;23.45;53.17;97721.56;5032741;28;20456;-76
2021/09/09 09:40:24;;;;;;;10.40;9.47;;;24.10;59.30;;;23.39;53.57;97701.56;5031329;28;21044;-77
2021/09/09 09:42:56;;;;;;;10.80;9.87;;;24.10;59.30;;;23.56;52.82;97711.97;5031219;28;20485;-77
2021/09/09 09:45:24;;;;;;;11.47;10.47;;;24.20;59.30;;;23.52;52.81;97710.13;5035571;28;20535;-78
2021/09/09 09:47:51;;;;;;;11.10;10.17;;;24.20;59.00;;;23.58;53.05;97717.16;5031687;28;20479;-77
2021/09/09 09:50:21;;;;;;;12.00;10.90;;;24.30;59.20;;;23.63;52.93;97714.31;5034581;28;20470;-78
2021/09/09 09:52:50;;;;;;;10.77;9.83;;;24.30;59.00;;;23.62;52.41;97724.50;5031071;28;20537;-78
2021/09/09 09:55:18;;;;;;;15.90;11.00;;;24.30;58.90;;;23.72;52.23;97711.63;5049654;28;20520;-76
2021/09/09 09:57:52;;;;;;;10.90;10.03;;;24.40;58.70;;;23.76;52.66;97716.22;5034114;28;20493;-77
2021/09/09 10:00:20;;;;;;;12.13;10.87;;;24.40;58.80;;;23.83;52.92;97709.47;5032518;28;20544;-78
2021/09/09 10:02:47;;;;;;;11.67;10.47;;;24.50;59.10;;;23.99;52.22;97713.50;5033305;28;20462;-79
2021/09/09 10:05:15;;;;;;;11.53;10.37;;;24.60;59.00;;;24.11;51.06;97706.66;5037487;28;20524;-78
2021/09/09 10:07:42;;;;;;;11.13;10.00;;;24.70;58.40;;;24.17;51.37;97708.16;5031834;28;20526;-78
2021/09/09 10:10:12;;;;;;;10.43;9.53;;;24.80;58.60;;;24.27;51.21;97702.38;5034361;28;20541;-78